Decoded Metar for KWVI (WATSONVILLE in CA, USA) (IATA:WVI) | Meteo·Mobile Aviation Weather
aviador You're here:

KWVI Decoded Metar

WATSONVILLE in CA, USA
Report Time2019-02-22 19:53:00
UTC Time2019-02-22 20:10:09
Flight Rules vfr VFR
WindVRB at 03 kt
Visibility9999 m
Phenomena:N/A
Clouds:N/A
Expected CloudBase > 6,400 ft AGL from Temp-Dew spread
CeilingNone
Temp13°C (ISA -2)
Dew Point-3°C (33% RH)
AAT9.5°C
QNH1020 hPa
Density Alt-230 ft
Elevation141 ft
Report Wrong Elevation
Raw Report
KWVI 221953Z AUTO VRB03KT 10SM CLR 13/M03 A3011 RMK AO2 SLP195
T01281028=

Extra information for KWVI:More info

Metar Taf Metar & Taf Last 4 Metars F.Rules Stats Wind Profile Meteogram Temp Stats Airport Information Weather charts Add Link Nearby VenuesMetar ALERT Operation Metar Decoded Social comments

AIRNAV info for KWVI